sensor_id;sensor_type;location;lat;lon;timestamp;pressure;altitude;pressure_sealevel;temperature;humidity
11936;BME280;6027;48.576;9.180;2023-05-14T00:02:17;96842.56;;;12.06;100.00
11936;BME280;6027;48.576;9.180;2023-05-14T00:04:42;96839.72;;;12.08;100.00
11936;BME280;6027;48.576;9.180;2023-05-14T00:07:08;96845.59;;;12.03;100.00
11936;BME280;6027;48.576;9.180;2023-05-14T00:09:33;96838.47;;;12.04;100.00
11936;BME280;6027;48.576;9.180;2023-05-14T00:11:59;96819.34;;;11.87;100.00
11936;BME280;6027;48.576;9.180;2023-05-14T00:14:25;96833.06;;;11.91;100.00
11936;BME280;6027;48.576;9.180;2023-05-14T00:16:50;96835.31;;;11.94;100.00
11936;BME280;6027;48.576;9.180;2023-05-14T00:19:16;96841.03;;;11.91;100.00
11936;BME280;6027;48.576;9.180;2023-05-14T00:21:41;96837.13;;;11.93;100.00
11936;BME280;6027;48.576;9.180;2023-05-14T00:24:07;96831.63;;;11.95;100.00
11936;BME280;6027;48.576;9.180;2023-05-14T00:26:32;96824.91;;;11.92;100.00
11936;BME280;6027;48.576;9.180;2023-05-14T00:28:57;96829.50;;;11.84;100.00
11936;BME280;6027;48.576;9.180;2023-05-14T00:31:23;96822.91;;;11.58;100.00
11936;BME280;6027;48.576;9.180;2023-05-14T00:33:48;96821.97;;;11.66;100.00
11936;BME280;6027;48.576;9.180;2023-05-14T00:36:14;96819.78;;;11.69;100.00
11936;BME280;6027;48.576;9.180;2023-05-14T00:38:39;96819.59;;;11.71;100.00
11936;BME280;6027;48.576;9.180;2023-05-14T00:41:05;96810.81;;;11.70;100.00
11936;BME280;6027;48.576;9.180;2023-05-14T00:43:30;96814.09;;;11.72;100.00
11936;BME280;6027;48.576;9.180;2023-05-14T00:45:58;96812.47;;;11.71;100.00
11936;BME280;6027;48.576;9.180;2023-05-14T00:48:24;96809.03;;;11.56;100.00
11936;BME280;6027;48.576;9.180;2023-05-14T00:50:50;96807.19;;;11.57;100.00
11936;BME280;6027;48.576;9.180;2023-05-14T00:53:16;96801.72;;;11.58;100.00
11936;BME280;6027;48.576;9.180;2023-05-14T00:55:43;96803.97;;;11.61;100.00
11936;BME280;6027;48.576;9.180;2023-05-14T00:58:11;96792.38;;;11.62;100.00
11936;BME280;6027;48.576;9.180;2023-05-14T01:00:38;96800.06;;;11.57;100.00
11936;BME280;6027;48.576;9.180;2023-05-14T01:03:04;96798.44;;;11.56;100.00
11936;BME280;6027;48.576;9.180;2023-05-14T01:05:40;96796.66;;;11.63;100.00
11936;BME280;6027;48.576;9.180;2023-05-14T01:08:31;96791.16;;;11.65;100.00
11936;BME280;6027;48.576;9.180;2023-05-14T01:11:13;96789.97;;;11.67;100.00
11936;BME280;6027;48.576;9.180;2023-05-14T01:16:15;96795.09;;;11.69;100.00
11936;BME280;6027;48.576;9.180;2023-05-14T01:18:43;96776.38;;;11.56;100.00
11936;BME280;6027;48.576;9.180;2023-05-14T01:21:36;96781.19;;;11.67;100.00
11936;BME280;6027;48.576;9.180;2023-05-14T01:24:02;96779.94;;;11.63;100.00
11936;BME280;6027;48.576;9.180;2023-05-14T01:26:28;96779.69;;;11.58;100.00
11936;BME280;6027;48.576;9.180;2023-05-14T01:28:59;96782.59;;;11.63;100.00
11936;BME280;6027;48.576;9.180;2023-05-14T01:31:25;96783.78;;;11.60;100.00
11936;BME280;6027;48.576;9.180;2023-05-14T01:33:54;96781.38;;;11.65;100.00
11936;BME280;6027;48.576;9.180;2023-05-14T01:36:21;96788.31;;;11.66;100.00
11936;BME280;6027;48.576;9.180;2023-05-14T01:38:48;96785.16;;;11.56;100.00
11936;BME280;6027;48.576;9.180;2023-05-14T01:41:15;96790.72;;;11.61;100.00
11936;BME280;6027;48.576;9.180;2023-05-14T01:43:44;96785.78;;;11.58;100.00
11936;BME280;6027;48.576;9.180;2023-05-14T01:46:10;96785.63;;;11.60;100.00
11936;BME280;6027;48.576;9.180;2023-05-14T01:48:35;96788.22;;;11.53;100.00
11936;BME280;6027;48.576;9.180;2023-05-14T01:51:02;96779.25;;;11.54;100.00
11936;BME280;6027;48.576;9.180;2023-05-14T01:53:28;96779.63;;;11.51;100.00
11936;BME280;6027;48.576;9.180;2023-05-14T01:55:53;96787.59;;;11.51;100.00
11936;BME280;6027;48.576;9.180;2023-05-14T01:58:19;96777.34;;;11.48;100.00
11936;BME280;6027;48.576;9.180;2023-05-14T02:00:44;96787.97;;;11.48;100.00
11936;BME280;6027;48.576;9.180;2023-05-14T02:03:10;96775.09;;;11.45;100.00
11936;BME280;6027;48.576;9.180;2023-05-14T02:05:35;96782.41;;;11.43;100.00
11936;BME280;6027;48.576;9.180;2023-05-14T02:08:00;96779.91;;;11.35;100.00
11936;BME280;6027;48.576;9.180;2023-05-14T02:10:26;96776.59;;;11.33;100.00
11936;BME280;6027;48.576;9.180;2023-05-14T02:12:51;96786.31;;;11.26;100.00
11936;BME280;6027;48.576;9.180;2023-05-14T02:15:17;96782.03;;;11.25;100.00
11936;BME280;6027;48.576;9.180;2023-05-14T02:17:42;96784.47;;;11.26;100.00
11936;BME280;6027;48.576;9.180;2023-05-14T02:20:08;96781.28;;;11.31;100.00
11936;BME280;6027;48.576;9.180;2023-05-14T02:22:34;96792.00;;;11.23;100.00
11936;BME280;6027;48.576;9.180;2023-05-14T02:27:27;96782.56;;;11.20;100.00
11936;BME280;6027;48.576;9.180;2023-05-14T02:29:53;96787.88;;;11.20;100.00
11936;BME280;6027;48.576;9.180;2023-05-14T02:32:18;96786.31;;;11.26;100.00
11936;BME280;6027;48.576;9.180;2023-05-14T02:34:44;96791.34;;;11.21;100.00
11936;BME280;6027;48.576;9.180;2023-05-14T02:37:09;96791.16;;;11.22;100.00
11936;BME280;6027;48.576;9.180;2023-05-14T02:39:35;96786.69;;;11.23;100.00
11936;BME280;6027;48.576;9.180;2023-05-14T02:42:00;96791.53;;;11.19;100.00
11936;BME280;6027;48.576;9.180;2023-05-14T02:44:26;96789.25;;;11.16;100.00
11936;BME280;6027;48.576;9.180;2023-05-14T02:46:51;96785.81;;;11.16;100.00
11936;BME280;6027;48.576;9.180;2023-05-14T02:49:16;96790.22;;;11.08;100.00
11936;BME280;6027;48.576;9.180;2023-05-14T02:51:42;96786.56;;;11.10;100.00
11936;BME280;6027;48.576;9.180;2023-05-14T02:54:08;96784.59;;;11.18;100.00
11936;BME280;6027;48.576;9.180;2023-05-14T02:56:33;96784.41;;;11.20;100.00
11936;BME280;6027;48.576;9.180;2023-05-14T02:58:59;96798.28;;;11.22;100.00
11936;BME280;6027;48.576;9.180;2023-05-14T03:01:24;96793.00;;;11.22;100.00
11936;BME280;6027;48.576;9.180;2023-05-14T03:03:50;96776.91;;;11.23;100.00
11936;BME280;6027;48.576;9.180;2023-05-14T03:06:15;96786.41;;;11.18;100.00
11936;BME280;6027;48.576;9.180;2023-05-14T03:08:40;96788.06;;;11.19;100.00
11936;BME280;6027;48.576;9.180;2023-05-14T03:11:06;96788.25;;;11.17;100.00
11936;BME280;6027;48.576;9.180;2023-05-14T03:13:31;96788.88;;;11.19;100.00
11936;BME280;6027;48.576;9.180;2023-05-14T03:15:57;96787.44;;;11.17;100.00
11936;BME280;6027;48.576;9.180;2023-05-14T03:18:22;96785.19;;;11.14;100.00
11936;BME280;6027;48.576;9.180;2023-05-14T03:20:48;96788.25;;;11.17;100.00
11936;BME280;6027;48.576;9.180;2023-05-14T03:23:13;96787.44;;;11.17;100.00
11936;BME280;6027;48.576;9.180;2023-05-14T03:25:39;96789.53;;;11.21;100.00
11936;BME280;6027;48.576;9.180;2023-05-14T03:28:05;96780.56;;;11.22;100.00
11936;BME280;6027;48.576;9.180;2023-05-14T03:30:30;96787.59;;;11.30;100.00
11936;BME280;6027;48.576;9.180;2023-05-14T03:32:57;96785.13;;;11.28;100.00
11936;BME280;6027;48.576;9.180;2023-05-14T03:35:23;96787.59;;;11.30;100.00
11936;BME280;6027;48.576;9.180;2023-05-14T03:37:48;96781.84;;;11.26;100.00
11936;BME280;6027;48.576;9.180;2023-05-14T03:40:15;96782.28;;;11.30;100.00
11936;BME280;6027;48.576;9.180;2023-05-14T03:42:40;96789.41;;;11.29;100.00
11936;BME280;6027;48.576;9.180;2023-05-14T03:45:06;96787.59;;;11.30;100.00
11936;BME280;6027;48.576;9.180;2023-05-14T03:47:32;96784.56;;;11.33;100.00
11936;BME280;6027;48.576;9.180;2023-05-14T03:49:57;96783.09;;;11.30;100.00
11936;BME280;6027;48.576;9.180;2023-05-14T03:52:23;96785.38;;;11.33;100.00
11936;BME280;6027;48.576;9.180;2023-05-14T03:54:48;96783.97;;;11.37;100.00
11936;BME280;6027;48.576;9.180;2023-05-14T03:57:13;96779.91;;;11.35;100.00
11936;BME280;6027;48.576;9.180;2023-05-14T03:59:39;96780.31;;;11.38;100.00
11936;BME280;6027;48.576;9.180;2023-05-14T04:02:04;96788.84;;;11.34;100.00
11936;BME280;6027;48.576;9.180;2023-05-14T04:04:30;96784.56;;;11.33;100.00
11936;BME280;6027;48.576;9.180;2023-05-14T04:06:55;96780.91;;;11.34;100.00
11936;BME280;6027;48.576;9.180;2023-05-14T04:09:20;96779.06;;;11.34;100.00
11936;BME280;6027;48.576;9.180;2023-05-14T04:11:46;96772.72;;;11.35;100.00
11936;BME280;6027;48.576;9.180;2023-05-14T04:14:11;96768.06;;;11.37;100.00
11936;BME280;6027;48.576;9.180;2023-05-14T04:16:37;96770.97;;;11.42;100.00
11936;BME280;6027;48.576;9.180;2023-05-14T04:19:02;96773.00;;;11.40;100.00
11936;BME280;6027;48.576;9.180;2023-05-14T04:21:31;96770.16;;;11.42;100.00
11936;BME280;6027;48.576;9.180;2023-05-14T04:23:56;96768.69;;;11.39;100.00
11936;BME280;6027;48.576;9.180;2023-05-14T04:26:22;96775.09;;;11.45;100.00
11936;BME280;6027;48.576;9.180;2023-05-14T04:28:47;96767.88;;;11.39;100.00
11936;BME280;6027;48.576;9.180;2023-05-14T04:31:14;96766.88;;;11.40;100.00
11936;BME280;6027;48.576;9.180;2023-05-14T04:33:39;96765.22;;;11.39;100.00
11936;BME280;6027;48.576;9.180;2023-05-14T04:36:05;96763.16;;;11.34;100.00
11936;BME280;6027;48.576;9.180;2023-05-14T04:38:30;96769.97;;;11.43;100.00
11936;BME280;6027;48.576;9.180;2023-05-14T04:40:56;96772.88;;;11.49;100.00
11936;BME280;6027;48.576;9.180;2023-05-14T04:43:22;96769.41;;;11.48;100.00
11936;BME280;6027;48.576;9.180;2023-05-14T04:45:48;96770.03;;;11.50;100.00
11936;BME280;6027;48.576;9.180;2023-05-14T04:48:13;96768.41;;;11.49;100.00
11936;BME280;6027;48.576;9.180;2023-05-14T04:50:38;96758.81;;;11.48;100.00
11936;BME280;6027;48.576;9.180;2023-05-14T04:53:04;96764.47;;;11.45;100.00
11936;BME280;6027;48.576;9.180;2023-05-14T04:55:29;96770.22;;;11.49;100.00
11936;BME280;6027;48.576;9.180;2023-05-14T04:57:55;96779.44;;;11.53;100.00
11936;BME280;6027;48.576;9.180;2023-05-14T05:00:20;96780.66;;;11.50;100.00
11936;BME280;6027;48.576;9.180;2023-05-14T05:02:46;96781.28;;;11.52;100.00
11936;BME280;6027;48.576;9.180;2023-05-14T05:05:11;96781.28;;;11.52;100.00
11936;BME280;6027;48.576;9.180;2023-05-14T05:07:37;96777.41;;;11.55;100.00
11936;BME280;6027;48.576;9.180;2023-05-14T05:10:02;96775.97;;;11.52;100.00
11936;BME280;6027;48.576;9.180;2023-05-14T05:12:28;96776.59;;;11.54;100.00
11936;BME280;6027;48.576;9.180;2023-05-14T05:14:57;96776.97;;;11.51;100.00
11936;BME280;6027;48.576;9.180;2023-05-14T05:17:23;96774.97;;;11.53;100.00
11936;BME280;6027;48.576;9.180;2023-05-14T05:19:49;96771.16;;;11.41;100.00
11936;BME280;6027;48.576;9.180;2023-05-14T05:22:14;96778.63;;;11.31;100.00
11936;BME280;6027;48.576;9.180;2023-05-14T05:24:40;96775.09;;;11.45;100.00
11936;BME280;6027;48.576;9.180;2023-05-14T05:27:05;96773.06;;;11.47;100.00
11936;BME280;6027;48.576;9.180;2023-05-14T05:29:31;96778.19;;;11.49;100.00
11936;BME280;6027;48.576;9.180;2023-05-14T05:31:56;96777.41;;;11.55;100.00
11936;BME280;6027;48.576;9.180;2023-05-14T05:34:22;96768.69;;;11.61;100.00
11936;BME280;6027;48.576;9.180;2023-05-14T05:36:47;96767.44;;;11.57;100.00
11936;BME280;6027;48.576;9.180;2023-05-14T05:39:13;96777.47;;;11.61;100.00
11936;BME280;6027;48.576;9.180;2023-05-14T05:41:38;96772.78;;;11.63;100.00
11936;BME280;6027;48.576;9.180;2023-05-14T05:44:04;96771.97;;;11.63;100.00
11936;BME280;6027;48.576;9.180;2023-05-14T05:46:30;96776.09;;;11.65;100.00
11936;BME280;6027;48.576;9.180;2023-05-14T05:48:55;96776.47;;;11.62;100.00
11936;BME280;6027;48.576;9.180;2023-05-14T05:51:21;96772.59;;;11.65;100.00
11936;BME280;6027;48.576;9.180;2023-05-14T05:53:46;96775.06;;;11.66;100.00
11936;BME280;6027;48.576;9.180;2023-05-14T05:56:11;96777.28;;;11.63;100.00
11936;BME280;6027;48.576;9.180;2023-05-14T05:58:37;96778.34;;;11.68;100.00
11936;BME280;6027;48.576;9.180;2023-05-14T06:01:02;96777.91;;;11.65;100.00
11936;BME280;6027;48.576;9.180;2023-05-14T06:05:55;96779.00;;;11.70;100.00
11936;BME280;6027;48.576;9.180;2023-05-14T06:08:21;96780.22;;;11.74;100.00
11936;BME280;6027;48.576;9.180;2023-05-14T06:10:46;96769.19;;;11.71;100.00
11936;BME280;6027;48.576;9.180;2023-05-14T06:13:12;96775.69;;;11.68;100.00
11936;BME280;6027;48.576;9.180;2023-05-14T06:15:37;96772.88;;;11.70;100.00
11936;BME280;6027;48.576;9.180;2023-05-14T06:18:02;96774.69;;;11.69;100.00
11936;BME280;6027;48.576;9.180;2023-05-14T06:20:28;96774.88;;;11.68;100.00
11936;BME280;6027;48.576;9.180;2023-05-14T06:22:54;96777.56;;;11.74;100.00
11936;BME280;6027;48.576;9.180;2023-05-14T06:25:20;96781.50;;;11.79;100.00
11936;BME280;6027;48.576;9.180;2023-05-14T06:27:45;96787.16;;;11.75;100.00
11936;BME280;6027;48.576;9.180;2023-05-14T06:30:11;96783.09;;;11.73;100.00
11936;BME280;6027;48.576;9.180;2023-05-14T06:32:36;96780.22;;;11.74;100.00
11936;BME280;6027;48.576;9.180;2023-05-14T06:35:02;96779.06;;;11.77;100.00
11936;BME280;6027;48.576;9.180;2023-05-14T06:37:28;96781.88;;;11.75;100.00
11936;BME280;6027;48.576;9.180;2023-05-14T06:39:54;96781.50;;;11.79;100.00
11936;BME280;6027;48.576;9.180;2023-05-14T06:42:22;96780.13;;;11.83;100.00
11936;BME280;6027;48.576;9.180;2023-05-14T06:44:48;96782.41;;;11.86;100.00
11936;BME280;6027;48.576;9.180;2023-05-14T06:47:13;96776.09;;;11.87;100.00
11936;BME280;6027;48.576;9.180;2023-05-14T06:49:39;96784.63;;;11.82;100.00
11936;BME280;6027;48.576;9.180;2023-05-14T06:52:04;96778.47;;;11.82;100.00
11936;BME280;6027;48.576;9.180;2023-05-14T06:54:30;96786.81;;;11.79;100.00
11936;BME280;6027;48.576;9.180;2023-05-14T06:56:55;96777.22;;;11.77;100.00
11936;BME280;6027;48.576;9.180;2023-05-14T06:59:21;96786.81;;;11.79;100.00
11936;BME280;6027;48.576;9.180;2023-05-14T07:01:47;96777.53;;;11.68;100.00
11936;BME280;6027;48.576;9.180;2023-05-14T07:04:16;96784.50;;;11.75;100.00
11936;BME280;6027;48.576;9.180;2023-05-14T07:06:41;96781.72;;;11.77;100.00
11936;BME280;6027;48.576;9.180;2023-05-14T07:09:06;96775.84;;;11.82;100.00
11936;BME280;6027;48.576;9.180;2023-05-14T07:11:32;96782.41;;;11.86;100.00
11936;BME280;6027;48.576;9.180;2023-05-14T07:13:58;96782.78;;;11.83;100.00
11936;BME280;6027;48.576;9.180;2023-05-14T07:16:24;96775.31;;;11.71;100.00
11936;BME280;6027;48.576;9.180;2023-05-14T07:18:49;96775.38;;;11.78;100.00
11936;BME280;6027;48.576;9.180;2023-05-14T07:21:15;96786.06;;;11.85;100.00
11936;BME280;6027;48.576;9.180;2023-05-14T07:23:40;96792.38;;;11.84;100.00
11936;BME280;6027;48.576;9.180;2023-05-14T07:26:06;96783.97;;;11.80;100.00
11936;BME280;6027;48.576;9.180;2023-05-14T07:28:32;96777.09;;;11.86;100.00
11936;BME280;6027;48.576;9.180;2023-05-14T07:30:58;96777.53;;;11.89;100.00
11936;BME280;6027;48.576;9.180;2023-05-14T07:33:24;96773.00;;;11.83;100.00
11936;BME280;6027;48.576;9.180;2023-05-14T07:35:49;96777.34;;;11.91;100.00
11936;BME280;6027;48.576;9.180;2023-05-14T07:38:15;96774.25;;;11.87;100.00
11936;BME280;6027;48.576;9.180;2023-05-14T07:40:41;96774.28;;;11.94;100.00
11936;BME280;6027;48.576;9.180;2023-05-14T07:43:07;96771.25;;;11.97;100.00
11936;BME280;6027;48.576;9.180;2023-05-14T07:45:33;96775.50;;;11.91;100.00
11936;BME280;6027;48.576;9.180;2023-05-14T07:47:58;96775.50;;;11.91;100.00
11936;BME280;6027;48.576;9.180;2023-05-14T07:50:24;96774.28;;;11.94;100.00
11936;BME280;6027;48.576;9.180;2023-05-14T07:52:49;96764.75;;;11.99;100.00
11936;BME280;6027;48.576;9.180;2023-05-14T07:55:15;96761.94;;;12.07;100.00
11936;BME280;6027;48.576;9.180;2023-05-14T07:57:41;96763.97;;;12.05;100.00
11936;BME280;6027;48.576;9.180;2023-05-14T08:00:06;96762.97;;;12.06;100.00
11936;BME280;6027;48.576;9.180;2023-05-14T08:02:32;96761.38;;;12.12;100.00
11936;BME280;6027;48.576;9.180;2023-05-14T08:04:58;96763.84;;;12.20;100.00
11936;BME280;6027;48.576;9.180;2023-05-14T08:07:23;96760.88;;;12.30;100.00
11936;BME280;6027;48.576;9.180;2023-05-14T08:09:49;96763.53;;;12.30;100.00
11936;BME280;6027;48.576;9.180;2023-05-14T08:12:15;96761.91;;;12.35;100.00
11936;BME280;6027;48.576;9.180;2023-05-14T08:14:40;96759.47;;;12.40;100.00
11936;BME280;6027;48.576;9.180;2023-05-14T08:17:06;96755.81;;;12.41;100.00
11936;BME280;6027;48.576;9.180;2023-05-14T08:19:31;96762.63;;;12.51;100.00
11936;BME280;6027;48.576;9.180;2023-05-14T08:21:57;96761.56;;;12.52;100.00
11936;BME280;6027;48.576;9.180;2023-05-14T08:24:22;96752.59;;;12.53;100.00
11936;BME280;6027;48.576;9.180;2023-05-14T08:26:48;96755.09;;;12.61;100.00
11936;BME280;6027;48.576;9.180;2023-05-14T08:29:13;96757.13;;;12.59;100.00
11936;BME280;6027;48.576;9.180;2023-05-14T08:31:39;96747.78;;;12.69;100.00
11936;BME280;6027;48.576;9.180;2023-05-14T08:34:05;96754.69;;;12.64;100.00
11936;BME280;6027;48.576;9.180;2023-05-14T08:36:30;96750.63;;;12.68;100.00
11936;BME280;6027;48.576;9.180;2023-05-14T08:38:57;96757.59;;;12.75;100.00
11936;BME280;6027;48.576;9.180;2023-05-14T08:41:22;96758.44;;;12.83;100.00
11936;BME280;6027;48.576;9.180;2023-05-14T08:44:11;96761.09;;;12.83;100.00
11936;BME280;6027;48.576;9.180;2023-05-14T08:46:37;96757.66;;;12.89;100.00
11936;BME280;6027;48.576;9.180;2023-05-14T08:49:21;96759.06;;;12.91;100.00
11936;BME280;6027;48.576;9.180;2023-05-14T08:51:49;96760.53;;;12.94;100.00
11936;BME280;6027;48.576;9.180;2023-05-14T08:54:15;96745.63;;;12.99;100.00
11936;BME280;6027;48.576;9.180;2023-05-14T08:56:43;96754.41;;;13.00;100.00
11936;BME280;6027;48.576;9.180;2023-05-14T08:59:10;96754.44;;;13.06;100.00
11936;BME280;6027;48.576;9.180;2023-05-14T09:01:37;96750.75;;;13.01;100.00
11936;BME280;6027;48.576;9.180;2023-05-14T09:04:04;96765.00;;;12.93;100.00
11936;BME280;6027;48.576;9.180;2023-05-14T09:06:35;96751.59;;;13.14;100.00
11936;BME280;6027;48.576;9.180;2023-05-14T09:09:02;96754.50;;;13.20;100.00
11936;BME280;6027;48.576;9.180;2023-05-14T09:11:28;96754.72;;;13.25;100.00
11936;BME280;6027;48.576;9.180;2023-05-14T09:13:53;96756.34;;;13.26;100.00
11936;BME280;6027;48.576;9.180;2023-05-14T09:16:19;96746.13;;;13.29;100.00
11936;BME280;6027;48.576;9.180;2023-05-14T09:18:46;96745.28;;;13.29;100.00
11936;BME280;6027;48.576;9.180;2023-05-14T09:21:13;96739.00;;;13.43;100.00
11936;BME280;6027;48.576;9.180;2023-05-14T09:23:41;96734.06;;;13.33;100.00
11936;BME280;6027;48.576;9.180;2023-05-14T09:26:08;96741.03;;;13.41;100.00
11936;BME280;6027;48.576;9.180;2023-05-14T09:28:34;96735.31;;;13.44;100.00
11936;BME280;6027;48.576;9.180;2023-05-14T09:31:01;96731.63;;;13.38;100.00
11936;BME280;6027;48.576;9.180;2023-05-14T09:33:27;96735.69;;;13.47;100.00
11936;BME280;6027;48.576;9.180;2023-05-14T09:36:00;96735.28;;;13.51;100.00
11936;BME280;6027;48.576;9.180;2023-05-14T09:38:32;96724.66;;;13.51;100.00
11936;BME280;6027;48.576;9.180;2023-05-14T09:40:58;96730.81;;;13.64;100.00
11936;BME280;6027;48.576;9.180;2023-05-14T09:43:24;96726.91;;;13.67;100.00
11936;BME280;6027;48.576;9.180;2023-05-14T09:45:51;96721.00;;;13.78;100.00
11936;BME280;6027;48.576;9.180;2023-05-14T09:48:16;96719.34;;;13.77;100.00
11936;BME280;6027;48.576;9.180;2023-05-14T09:50:42;96726.50;;;13.90;100.00
11936;BME280;6027;48.576;9.180;2023-05-14T09:53:09;96718.09;;;13.93;100.00
11936;BME280;6027;48.576;9.180;2023-05-14T09:55:35;96717.69;;;14.02;100.00
11936;BME280;6027;48.576;9.180;2023-05-14T09:58:01;96716.63;;;14.16;100.00
11936;BME280;6027;48.576;9.180;2023-05-14T10:00:28;96714.78;;;14.10;100.00
11936;BME280;6027;48.576;9.180;2023-05-14T10:02:54;96720.13;;;14.17;100.00
11936;BME280;6027;48.576;9.180;2023-05-14T10:05:22;96712.31;;;14.15;100.00
11936;BME280;6027;48.576;9.180;2023-05-14T10:07:50;96709.81;;;14.27;100.00
11936;BME280;6027;48.576;9.180;2023-05-14T10:10:23;96706.97;;;14.29;100.00
11936;BME280;6027;48.576;9.180;2023-05-14T10:12:52;96704.50;;;14.40;100.00
11936;BME280;6027;48.576;9.180;2023-05-14T10:15:28;96706.72;;;14.50;100.00
11936;BME280;6027;48.576;9.180;2023-05-14T10:17:59;96702.00;;;14.52;100.00
11936;BME280;6027;48.576;9.180;2023-05-14T10:20:26;96694.00;;;14.59;100.00
11936;BME280;6027;48.576;9.180;2023-05-14T10:22:52;96702.97;;;14.64;100.00
11936;BME280;6027;48.576;9.180;2023-05-14T10:25:18;96698.03;;;14.68;100.00
11936;BME280;6027;48.576;9.180;2023-05-14T10:27:44;96702.97;;;14.64;100.00
11936;BME280;6027;48.576;9.180;2023-05-14T10:30:11;96700.03;;;14.79;100.00
11936;BME280;6027;48.576;9.180;2023-05-14T10:32:37;96691.84;;;14.80;100.00
11936;BME280;6027;48.576;9.180;2023-05-14T10:35:15;96691.44;;;14.77;100.00
11936;BME280;6027;48.576;9.180;2023-05-14T10:37:42;96698.16;;;14.86;100.00
11936;BME280;6027;48.576;9.180;2023-05-14T10:40:09;96696.50;;;14.85;100.00
11936;BME280;6027;48.576;9.180;2023-05-14T10:42:37;96699.16;;;14.92;100.00
11936;BME280;6027;48.576;9.180;2023-05-14T10:45:09;96698.94;;;14.93;100.00
11936;BME280;6027;48.576;9.180;2023-05-14T10:47:38;96689.06;;;15.00;100.00
11936;BME280;6027;48.576;9.180;2023-05-14T10:50:05;96696.47;;;14.98;100.00
11936;BME280;6027;48.576;9.180;2023-05-14T10:52:32;96690.59;;;15.14;100.00
11936;BME280;6027;48.576;9.180;2023-05-14T10:55:01;96684.47;;;15.14;100.00
11936;BME280;6027;48.576;9.180;2023-05-14T10:57:29;96683.66;;;15.07;100.00
11936;BME280;6027;48.576;9.180;2023-05-14T10:59:56;96685.69;;;15.11;100.00
11936;BME280;6027;48.576;9.180;2023-05-14T11:04:58;96678.53;;;15.12;100.00
11936;BME280;6027;48.576;9.180;2023-05-14T11:07:28;96670.09;;;15.15;100.00
11936;BME280;6027;48.576;9.180;2023-05-14T11:10:06;96666.19;;;15.17;100.00
11936;BME280;6027;48.576;9.180;2023-05-14T11:12:34;96667.94;;;15.30;100.00
11936;BME280;6027;48.576;9.180;2023-05-14T11:15:01;96665.22;;;15.37;100.00
11936;BME280;6027;48.576;9.180;2023-05-14T11:17:29;96661.22;;;15.46;100.00
11936;BME280;6027;48.576;9.180;2023-05-14T11:19:56;96660.38;;;15.52;100.00
11936;BME280;6027;48.576;9.180;2023-05-14T11:22:22;96658.72;;;15.58;99.80
11936;BME280;6027;48.576;9.180;2023-05-14T11:24:48;96644.09;;;15.60;100.00
11936;BME280;6027;48.576;9.180;2023-05-14T11:27:15;96643.28;;;15.60;99.85
11936;BME280;6027;48.576;9.180;2023-05-14T11:29:45;96649.81;;;15.64;100.00
11936;BME280;6027;48.576;9.180;2023-05-14T11:32:11;96643.00;;;15.68;90.58
11936;BME280;6027;48.576;9.180;2023-05-14T11:34:37;96648.50;;;15.73;95.45
11936;BME280;6027;48.576;9.180;2023-05-14T11:37:04;96646.66;;;15.73;100.00
11936;BME280;6027;48.576;9.180;2023-05-14T11:39:33;96640.09;;;15.94;97.57
11936;BME280;6027;48.576;9.180;2023-05-14T11:42:02;96648.09;;;15.94;95.14
11936;BME280;6027;48.576;9.180;2023-05-14T11:44:28;96637.03;;;15.91;94.55
11936;BME280;6027;48.576;9.180;2023-05-14T11:46:57;96645.66;;;15.93;95.45
11936;BME280;6027;48.576;9.180;2023-05-14T11:49:24;96637.03;;;15.91;96.92
11936;BME280;6027;48.576;9.180;2023-05-14T11:51:59;96638.28;;;15.88;98.96
11936;BME280;6027;48.576;9.180;2023-05-14T11:54:26;96632.69;;;15.96;97.01
11936;BME280;6027;48.576;9.180;2023-05-14T11:56:56;96626.19;;;16.04;97.71
11936;BME280;6027;48.576;9.180;2023-05-14T11:59:26;96625.81;;;16.00;97.17
11936;BME280;6027;48.576;9.180;2023-05-14T12:01:52;96626.81;;;16.06;93.93
11936;BME280;6027;48.576;9.180;2023-05-14T12:04:18;96622.66;;;16.10;92.25
11936;BME280;6027;48.576;9.180;2023-05-14T12:06:50;96623.69;;;16.09;90.92
11936;BME280;6027;48.576;9.180;2023-05-14T12:09:17;96618.34;;;16.09;92.70
11936;BME280;6027;48.576;9.180;2023-05-14T12:11:44;96619.53;;;16.13;92.61
11936;BME280;6027;48.576;9.180;2023-05-14T12:14:15;96615.25;;;16.12;90.12
11936;BME280;6027;48.576;9.180;2023-05-14T12:16:42;96615.34;;;16.17;91.43
11936;BME280;6027;48.576;9.180;2023-05-14T12:19:18;96596.59;;;16.05;91.54
11936;BME280;6027;48.576;9.180;2023-05-14T12:21:46;96609.44;;;16.15;91.74
11936;BME280;6027;48.576;9.180;2023-05-14T12:24:14;96600.59;;;16.33;93.89
11936;BME280;6027;48.576;9.180;2023-05-14T12:26:48;96592.22;;;16.29;91.25
11936;BME280;6027;48.576;9.180;2023-05-14T12:29:14;96599.19;;;16.30;86.31
11936;BME280;6027;48.576;9.180;2023-05-14T12:31:48;96587.59;;;16.36;86.31
11936;BME280;6027;48.576;9.180;2023-05-14T12:34:14;96583.53;;;16.34;86.28
11936;BME280;6027;48.576;9.180;2023-05-14T12:36:40;96587.25;;;16.33;88.52
11936;BME280;6027;48.576;9.180;2023-05-14T12:39:06;96581.44;;;16.36;89.63
11936;BME280;6027;48.576;9.180;2023-05-14T12:41:32;96580.53;;;16.42;87.69
11936;BME280;6027;48.576;9.180;2023-05-14T12:43:58;96576.81;;;16.43;90.17
11936;BME280;6027;48.576;9.180;2023-05-14T12:46:25;96572.91;;;16.57;85.00
11936;BME280;6027;48.576;9.180;2023-05-14T12:48:52;96571.16;;;16.51;81.28
11936;BME280;6027;48.576;9.180;2023-05-14T12:51:17;96567.84;;;16.37;81.34
11936;BME280;6027;48.576;9.180;2023-05-14T12:53:43;96572.50;;;16.42;78.58
11936;BME280;6027;48.576;9.180;2023-05-14T12:56:09;96563.06;;;16.28;79.49
11936;BME280;6027;48.576;9.180;2023-05-14T12:58:34;96566.91;;;16.32;84.38
11936;BME280;6027;48.576;9.180;2023-05-14T13:01:00;96567.03;;;16.37;82.56
11936;BME280;6027;48.576;9.180;2023-05-14T13:03:25;96568.31;;;16.34;83.35
11936;BME280;6027;48.576;9.180;2023-05-14T13:05:52;96560.88;;;16.36;84.80
11936;BME280;6027;48.576;9.180;2023-05-14T13:08:20;96559.38;;;16.40;83.30
11936;BME280;6027;48.576;9.180;2023-05-14T13:10:46;96563.78;;;16.35;83.21